Time,TemperatureF,DewpointF,PressureIn,WindDirection,WindDirectionDegrees,WindSpeedMPH,WindSpeedGustMPH,Humidity,HourlyPrecipIn,Conditions,Clouds,dailyrainin,SoftwareType,DateUTC
2013-03-01 00:09:00,32.8,31.0,29.56,NNW,329,3.0,-999.0,91,-99.99,,,0.00,weatherlink.com 1.10,2013-03-01 05:09:00,
2013-03-01 00:24:00,32.8,31.0,29.56,NW,313,4.0,-999.0,91,-99.99,,,0.00,weatherlink.com 1.10,2013-03-01 05:24:00,
2013-03-01 00:39:00,32.8,31.0,29.55,NW,324,3.0,-999.0,91,-99.99,,,0.00,weatherlink.com 1.10,2013-03-01 05:39:00,
2013-03-01 00:54:00,32.8,31.0,29.56,NNW,338,2.0,-999.0,91,-99.99,,,0.00,weatherlink.com 1.10,2013-03-01 05:54:00,
2013-03-01 01:09:00,32.8,31.0,29.56,West,272,1.0,-999.0,91,-99.99,,,0.00,weatherlink.com 1.10,2013-03-01 06:09:00,
2013-03-01 01:24:00,32.8,31.0,29.56,WNW,288,0.0,-999.0,91,-99.99,,,0.00,weatherlink.com 1.10,2013-03-01 06:24:00,
2013-03-01 01:39:00,32.8,31.0,29.55,NNW,336,6.0,-999.0,91,-99.99,,,0.00,weatherlink.com 1.10,2013-03-01 06:39:00,
2013-03-01 01:54:00,32.7,30.0,29.55,NNW,335,3.0,-999.0,90,-99.99,,,0.00,weatherlink.com 1.10,2013-03-01 06:54:00,
2013-03-01 02:09:00,32.8,30.0,29.55,West,280,4.0,-999.0,90,-99.99,,,0.00,weatherlink.com 1.10,2013-03-01 07:09:00,
2013-03-01 02:24:00,32.7,30.0,29.55,NW,320,5.0,-999.0,91,-99.99,,,0.00,weatherlink.com 1.10,2013-03-01 07:24:00,
2013-03-01 02:39:00,32.6,30.0,29.56,NNW,330,5.0,-999.0,91,-99.99,,,0.00,weatherlink.com 1.10,2013-03-01 07:39:00,
2013-03-01 02:54:00,32.5,30.0,29.56,NW,315,3.0,-999.0,91,-99.99,,,0.00,weatherlink.com 1.10,2013-03-01 07:54:00,
2013-03-01 03:09:00,32.4,30.0,29.56,NW,313,1.0,-999.0,92,-99.99,,,0.00,weatherlink.com 1.10,2013-03-01 08:09:00,
2013-03-01 03:24:00,32.4,30.0,29.56,NW,314,4.0,-999.0,92,-99.99,,,0.00,weatherlink.com 1.10,2013-03-01 08:24:00,
2013-03-01 03:39:00,32.4,30.0,29.56,NW,323,1.0,-999.0,92,-99.99,,,0.00,weatherlink.com 1.10,2013-03-01 08:39:00,
2013-03-01 03:54:00,32.3,30.0,29.57,NNW,336,3.0,-999.0,91,-99.99,,,0.00,weatherlink.com 1.10,2013-03-01 08:54:00,
2013-03-01 04:09:00,32.3,30.0,29.58,NNW,327,1.0,-999.0,91,-99.99,,,0.00,weatherlink.com 1.10,2013-03-01 09:09:00,
2013-03-01 04:24:00,32.3,30.0,29.58,NW,314,3.0,-999.0,91,-99.99,,,0.00,weatherlink.com 1.10,2013-03-01 09:24:00,
2013-03-01 04:39:00,32.3,30.0,29.59,NNW,337,3.0,-999.0,90,-99.99,,,0.00,weatherlink.com 1.10,2013-03-01 09:39:00,
2013-03-01 04:55:00,32.3,30.0,29.59,NW,306,1.0,-999.0,90,-99.99,,,0.00,weatherlink.com 1.10,2013-03-01 09:55:00,
2013-03-01 05:10:00,32.3,30.0,29.59,WNW,292,0.0,-999.0,89,-99.99,,,0.00,weatherlink.com 1.10,2013-03-01 10:10:00,
2013-03-01 05:25:00,32.3,30.0,29.59,NNW,342,2.0,-999.0,89,-99.99,,,0.00,weatherlink.com 1.10,2013-03-01 10:25:00,
2013-03-01 05:40:00,32.2,29.0,29.60,WSW,244,1.0,-999.0,89,-99.99,,,0.00,weatherlink.com 1.10,2013-03-01 10:40:00,
2013-03-01 05:55:00,32.2,29.0,29.60,NW,315,1.0,-999.0,89,-99.99,,,0.00,weatherlink.com 1.10,2013-03-01 10:55:00,
2013-03-01 06:10:00,32.3,30.0,29.61,NW,325,3.0,-999.0,89,-99.99,,,0.00,weatherlink.com 1.10,2013-03-01 11:10:00,
2013-03-01 06:25:00,32.2,29.0,29.61,NNW,341,3.0,-999.0,88,-99.99,,,0.00,weatherlink.com 1.10,2013-03-01 11:25:00,
2013-03-01 06:40:00,32.2,29.0,29.61,NNW,329,3.0,-999.0,88,-99.99,,,0.00,weatherlink.com 1.10,2013-03-01 11:40:00,
2013-03-01 06:55:00,32.2,29.0,29.61,NNW,339,2.0,-999.0,88,-99.99,,,0.00,weatherlink.com 1.10,2013-03-01 11:55:00,
2013-03-01 07:10:00,32.2,29.0,29.61,NNW,333,2.0,-999.0,88,-99.99,,,0.00,weatherlink.com 1.10,2013-03-01 12:10:00,
2013-03-01 07:25:00,32.3,30.0,29.62,NNW,336,2.0,-999.0,89,-99.99,,,0.00,weatherlink.com 1.10,2013-03-01 12:25:00,
2013-03-01 07:40:00,32.2,29.0,29.63,NW,304,3.0,-999.0,89,-99.99,,,0.00,weatherlink.com 1.10,2013-03-01 12:40:00,
2013-03-01 07:55:00,32.2,29.0,29.63,NW,326,3.0,-999.0,88,-99.99,,,0.00,weatherlink.com 1.10,2013-03-01 12:55:00,
2013-03-01 08:10:00,32.3,29.0,29.64,NNW,330,3.0,-999.0,88,-99.99,,,0.00,weatherlink.com 1.10,2013-03-01 13:10:00,
2013-03-01 08:25:00,32.3,29.0,29.64,WNW,292,4.0,-999.0,88,-99.99,,,0.00,weatherlink.com 1.10,2013-03-01 13:25:00,
2013-03-01 08:40:00,32.3,29.0,29.64,WNW,301,3.0,-999.0,88,-99.99,,,0.00,weatherlink.com 1.10,2013-03-01 13:40:00,
2013-03-01 08:55:00,32.5,29.0,29.63,WNW,295,7.0,-999.0,86,-99.99,,,0.00,weatherlink.com 1.10,2013-03-01 13:55:00,
2013-03-01 09:10:00,32.8,29.0,29.63,NW,314,6.0,-999.0,86,-99.99,,,0.00,weatherlink.com 1.10,2013-03-01 14:10:00,
2013-03-01 09:25:00,33.2,29.0,29.64,NNW,331,2.0,-999.0,85,-99.99,,,0.00,weatherlink.com 1.10,2013-03-01 14:25:00,
2013-03-01 09:40:00,33.7,29.0,29.63,NW,321,7.0,-999.0,84,-99.99,,,0.00,weatherlink.com 1.10,2013-03-01 14:40:00,
2013-03-01 09:55:00,34.0,29.0,29.64,NW,321,6.0,-999.0,83,-99.99,,,0.00,weatherlink.com 1.10,2013-03-01 14:55:00,
2013-03-01 10:10:00,34.4,29.0,29.64,NW,317,6.0,-999.0,82,-99.99,,,0.00,weatherlink.com 1.10,2013-03-01 15:10:00,
2013-03-01 10:25:00,35.1,30.0,29.65,North,351,11.0,-999.0,81,-99.99,,,0.00,weatherlink.com 1.10,2013-03-01 15:25:00,
2013-03-01 10:40:00,35.3,30.0,29.64,WNW,300,7.0,-999.0,80,-99.99,,,0.00,weatherlink.com 1.10,2013-03-01 15:40:00,
2013-03-01 10:55:00,35.8,30.0,29.64,NNW,328,5.0,-999.0,80,-99.99,,,0.00,weatherlink.com 1.10,2013-03-01 15:55:00,
2013-03-01 11:10:00,36.2,31.0,29.65,NNW,340,4.0,-999.0,80,-99.99,,,0.00,weatherlink.com 1.10,2013-03-01 16:10:00,
2013-03-01 11:25:00,36.6,30.0,29.65,North,355,11.0,-999.0,78,-99.99,,,0.00,weatherlink.com 1.10,2013-03-01 16:25:00,
2013-03-01 11:40:00,36.9,30.0,29.65,NNW,344,8.0,-999.0,77,-99.99,,,0.00,weatherlink.com 1.10,2013-03-01 16:40:00,
2013-03-01 11:55:00,36.9,30.0,29.65,NNW,341,6.0,-999.0,75,-99.99,,,0.00,weatherlink.com 1.10,2013-03-01 16:55:00,
2013-03-01 12:10:00,36.8,30.0,29.64,NW,311,3.0,-999.0,75,-99.99,,,0.00,weatherlink.com 1.10,2013-03-01 17:10:00,
2013-03-01 12:25:00,37.2,30.0,29.64,NNW,335,6.0,-999.0,74,-99.99,,,0.00,weatherlink.com 1.10,2013-03-01 17:25:00,
2013-03-01 12:40:00,37.4,29.0,29.64,NNW,333,9.0,-999.0,72,-99.99,,,0.00,weatherlink.com 1.10,2013-03-01 17:40:00,
2013-03-01 12:55:00,37.0,28.0,29.64,NNW,331,4.0,-999.0,71,-99.99,,,0.00,weatherlink.com 1.10,2013-03-01 17:55:00,
2013-03-01 13:10:00,36.5,29.0,29.64,NNW,347,6.0,-999.0,73,-99.99,,,0.00,weatherlink.com 1.10,2013-03-01 18:10:00,
2013-03-01 13:40:00,36.1,29.0,29.64,NNW,339,3.0,-999.0,76,-99.99,,,0.00,weatherlink.com 1.10,2013-03-01 18:40:00,
2013-03-01 13:55:00,36.2,29.0,29.64,WNW,300,1.0,-999.0,75,-99.99,,,0.00,weatherlink.com 1.10,2013-03-01 18:55:00,
2013-03-01 14:10:00,36.1,29.0,29.64,NW,319,4.0,-999.0,75,-99.99,,,0.00,weatherlink.com 1.10,2013-03-01 19:10:00,
2013-03-01 14:25:00,36.0,29.0,29.64,NW,306,5.0,-999.0,75,-99.99,,,0.00,weatherlink.com 1.10,2013-03-01 19:25:00,
2013-03-01 14:40:00,36.0,29.0,29.64,WNW,301,2.0,-999.0,75,-99.99,,,0.00,weatherlink.com 1.10,2013-03-01 19:40:00,
2013-03-01 14:55:00,36.2,29.0,29.64,NNW,335,4.0,-999.0,76,-99.99,,,0.00,weatherlink.com 1.10,2013-03-01 19:55:00,
2013-03-01 15:10:00,36.2,29.0,29.64,NW,311,5.0,-999.0,76,-99.99,,,0.00,weatherlink.com 1.10,2013-03-01 20:10:00,
2013-03-01 15:25:00,35.6,29.0,29.65,NW,324,2.0,-999.0,77,-99.99,,,0.00,weatherlink.com 1.10,2013-03-01 20:25:00,
2013-03-01 15:40:00,34.8,30.0,29.65,North,355,6.0,-999.0,81,-99.99,,,0.00,weatherlink.com 1.10,2013-03-01 20:40:00,
2013-03-01 15:55:00,34.2,30.0,29.65,NW,316,2.0,-999.0,84,-99.99,,,0.00,weatherlink.com 1.10,2013-03-01 20:55:00,
2013-03-01 16:10:00,33.8,30.0,29.66,NNW,327,0.0,-999.0,85,-99.99,,,0.00,weatherlink.com 1.10,2013-03-01 21:10:00,
2013-03-01 16:25:00,33.7,30.0,29.66,NW,317,3.0,-999.0,85,-99.99,,,0.00,weatherlink.com 1.10,2013-03-01 21:25:00,
2013-03-01 16:40:00,33.7,30.0,29.66,NNW,332,0.0,-999.0,85,-99.99,,,0.00,weatherlink.com 1.10,2013-03-01 21:40:00,
2013-03-01 16:56:00,33.6,30.0,29.66,NW,323,2.0,-999.0,85,-99.99,,,0.00,weatherlink.com 1.10,2013-03-01 21:56:00,
2013-03-01 17:11:00,33.6,30.0,29.66,NNW,348,4.0,-999.0,85,-99.99,,,0.00,weatherlink.com 1.10,2013-03-01 22:11:00,
2013-03-01 17:26:00,33.5,30.0,29.67,NNW,331,3.0,-999.0,86,-99.99,,,0.00,weatherlink.com 1.10,2013-03-01 22:26:00,
2013-03-01 17:41:00,33.4,30.0,29.68,NNW,340,1.0,-999.0,86,-99.99,,,0.00,weatherlink.com 1.10,2013-03-01 22:41:00,
2013-03-01 17:56:00,33.3,30.0,29.68,NW,321,3.0,-999.0,86,-99.99,,,0.00,weatherlink.com 1.10,2013-03-01 22:56:00,
2013-03-01 18:11:00,33.2,29.0,29.69,North,351,5.0,-999.0,85,-99.99,,,0.00,weatherlink.com 1.10,2013-03-01 23:11:00,
2013-03-01 18:26:00,33.2,29.0,29.69,NNW,343,6.0,-999.0,85,-99.99,,,0.00,weatherlink.com 1.10,2013-03-01 23:26:00,
2013-03-01 18:41:00,33.1,29.0,29.69,NW,317,6.0,-999.0,85,-99.99,,,0.00,weatherlink.com 1.10,2013-03-01 23:41:00,
2013-03-01 18:56:00,33.0,29.0,29.70,NW,321,3.0,-999.0,85,-99.99,,,0.00,weatherlink.com 1.10,2013-03-01 23:56:00,
2013-03-01 19:11:00,32.9,29.0,29.70,NW,317,0.0,-999.0,85,-99.99,,,0.00,weatherlink.com 1.10,2013-03-02 00:11:00,
2013-03-01 19:26:00,32.8,29.0,29.70,NW,313,0.0,-999.0,85,-99.99,,,0.00,weatherlink.com 1.10,2013-03-02 00:26:00,
2013-03-01 19:41:00,32.7,28.0,29.71,WNW,300,4.0,-999.0,83,-99.99,,,0.00,weatherlink.com 1.10,2013-03-02 00:41:00,
2013-03-01 19:56:00,32.6,28.0,29.71,NNW,333,3.0,-999.0,84,-99.99,,,0.00,weatherlink.com 1.10,2013-03-02 00:56:00,
2013-03-01 20:11:00,32.2,28.0,29.71,NNW,329,6.0,-999.0,83,-99.99,,,0.00,weatherlink.com 1.10,2013-03-02 01:11:00,
2013-03-01 20:26:00,31.9,27.0,29.71,NW,318,3.0,-999.0,83,-99.99,,,0.00,weatherlink.com 1.10,2013-03-02 01:26:00,
2013-03-01 20:41:00,31.6,27.0,29.72,SW,225,8.0,-999.0,82,-99.99,,,0.00,weatherlink.com 1.10,2013-03-02 01:41:00,
2013-03-01 20:56:00,31.3,26.0,29.72,NW,321,2.0,-999.0,82,-99.99,,,0.00,weatherlink.com 1.10,2013-03-02 01:56:00,
2013-03-01 21:11:00,31.0,26.0,29.72,NNW,347,5.0,-999.0,83,-99.99,,,0.00,weatherlink.com 1.10,2013-03-02 02:11:00,
2013-03-01 21:26:00,30.8,26.0,29.72,NW,306,1.0,-999.0,83,-99.99,,,0.00,weatherlink.com 1.10,2013-03-02 02:26:00,
2013-03-01 21:41:00,30.6,26.0,29.72,North,349,6.0,-999.0,83,-99.99,,,0.00,weatherlink.com 1.10,2013-03-02 02:41:00,
2013-03-01 21:56:00,30.5,26.0,29.72,West,269,5.0,-999.0,82,-99.99,,,0.00,weatherlink.com 1.10,2013-03-02 02:56:00,
2013-03-01 22:11:00,30.3,25.0,29.72,NW,313,6.0,-999.0,82,-99.99,,,0.00,weatherlink.com 1.10,2013-03-02 03:11:00,
2013-03-01 22:26:00,30.2,25.0,29.73,NW,312,0.0,-999.0,81,-99.99,,,0.00,weatherlink.com 1.10,2013-03-02 03:26:00,
2013-03-01 22:44:00,30.2,25.0,29.73,NNW,328,3.0,-999.0,81,-99.99,,,0.00,weatherlink.com 1.10,2013-03-02 03:44:00,
2013-03-01 22:56:00,30.1,25.0,29.73,North,360,3.0,-999.0,80,-99.99,,,0.00,weatherlink.com 1.10,2013-03-02 03:56:00,
2013-03-01 23:11:00,30.0,25.0,29.73,WNW,297,0.0,-999.0,80,-99.99,,,0.00,weatherlink.com 1.10,2013-03-02 04:11:00,
2013-03-01 23:26:00,30.0,25.0,29.73,WNW,290,2.0,-999.0,80,-99.99,,,0.00,weatherlink.com 1.10,2013-03-02 04:26:00,
2013-03-01 23:41:00,29.9,24.0,29.73,WNW,288,3.0,-999.0,80,-99.99,,,0.00,weatherlink.com 1.10,2013-03-02 04:41:00,
2013-03-01 23:56:00,29.8,24.0,29.72,NNW,338,6.0,-999.0,80,-99.99,,,0.00,weatherlink.com 1.10,2013-03-02 04:56:00,